sensor_id;sensor_type;location;lat;lon;timestamp;P1;durP1;ratioP1;P2;durP2;ratioP2
75535;SDS011;64119;52.070;20.804;2024-03-25T00:00:24;9.80;;;5.60;;
75535;SDS011;64119;52.070;20.804;2024-03-25T00:03:12;9.10;;;5.40;;
75535;SDS011;64119;52.070;20.804;2024-03-25T00:05:39;13.50;;;7.00;;
75535;SDS011;64119;52.070;20.804;2024-03-25T00:08:07;10.30;;;5.90;;
75535;SDS011;64119;52.070;20.804;2024-03-25T00:10:35;14.10;;;6.70;;
75535;SDS011;64119;52.070;20.804;2024-03-25T00:13:04;12.80;;;7.10;;
75535;SDS011;64119;52.070;20.804;2024-03-25T00:15:32;11.80;;;7.10;;
75535;SDS011;64119;52.070;20.804;2024-03-25T00:18:01;12.10;;;6.20;;
75535;SDS011;64119;52.070;20.804;2024-03-25T00:20:29;13.30;;;6.70;;
75535;SDS011;64119;52.070;20.804;2024-03-25T00:22:56;14.20;;;6.70;;
75535;SDS011;64119;52.070;20.804;2024-03-25T00:25:24;12.80;;;6.10;;
75535;SDS011;64119;52.070;20.804;2024-03-25T00:27:51;11.30;;;6.90;;
75535;SDS011;64119;52.070;20.804;2024-03-25T00:30:19;10.00;;;5.70;;
75535;SDS011;64119;52.070;20.804;2024-03-25T00:32:47;12.80;;;6.90;;
75535;SDS011;64119;52.070;20.804;2024-03-25T00:35:14;10.20;;;5.80;;
75535;SDS011;64119;52.070;20.804;2024-03-25T00:37:42;13.30;;;6.90;;
75535;SDS011;64119;52.070;20.804;2024-03-25T00:40:10;11.40;;;6.00;;
75535;SDS011;64119;52.070;20.804;2024-03-25T00:42:38;11.50;;;6.30;;
75535;SDS011;64119;52.070;20.804;2024-03-25T00:45:06;10.60;;;5.60;;
75535;SDS011;64119;52.070;20.804;2024-03-25T00:47:34;9.30;;;5.70;;
75535;SDS011;64119;52.070;20.804;2024-03-25T00:50:02;16.00;;;6.50;;
75535;SDS011;64119;52.070;20.804;2024-03-25T00:52:30;13.10;;;6.00;;
75535;SDS011;64119;52.070;20.804;2024-03-25T00:54:57;12.90;;;6.10;;
75535;SDS011;64119;52.070;20.804;2024-03-25T00:57:25;13.40;;;6.40;;
75535;SDS011;64119;52.070;20.804;2024-03-25T00:59:53;13.50;;;7.30;;
75535;SDS011;64119;52.070;20.804;2024-03-25T01:02:21;12.60;;;7.00;;
75535;SDS011;64119;52.070;20.804;2024-03-25T01:04:48;10.40;;;6.10;;
75535;SDS011;64119;52.070;20.804;2024-03-25T01:07:16;12.80;;;6.60;;
75535;SDS011;64119;52.070;20.804;2024-03-25T01:09:43;15.40;;;7.70;;
75535;SDS011;64119;52.070;20.804;2024-03-25T01:12:11;10.10;;;5.60;;
75535;SDS011;64119;52.070;20.804;2024-03-25T01:14:38;10.40;;;5.60;;
75535;SDS011;64119;52.070;20.804;2024-03-25T01:17:06;16.80;;;7.80;;
75535;SDS011;64119;52.070;20.804;2024-03-25T01:19:33;12.90;;;6.10;;
75535;SDS011;64119;52.070;20.804;2024-03-25T01:22:01;11.50;;;6.40;;
75535;SDS011;64119;52.070;20.804;2024-03-25T01:24:28;12.80;;;6.10;;
75535;SDS011;64119;52.070;20.804;2024-03-25T01:26:56;13.00;;;6.30;;
75535;SDS011;64119;52.070;20.804;2024-03-25T01:29:23;11.20;;;5.70;;
75535;SDS011;64119;52.070;20.804;2024-03-25T01:31:51;9.40;;;5.90;;
75535;SDS011;64119;52.070;20.804;2024-03-25T01:34:20;14.70;;;6.90;;
75535;SDS011;64119;52.070;20.804;2024-03-25T01:36:48;10.60;;;5.20;;
75535;SDS011;64119;52.070;20.804;2024-03-25T01:39:16;10.10;;;5.90;;
75535;SDS011;64119;52.070;20.804;2024-03-25T01:41:44;12.60;;;6.10;;
75535;SDS011;64119;52.070;20.804;2024-03-25T01:44:14;10.60;;;6.10;;
75535;SDS011;64119;52.070;20.804;2024-03-25T01:46:42;10.70;;;6.00;;
75535;SDS011;64119;52.070;20.804;2024-03-25T01:49:10;9.20;;;5.70;;
75535;SDS011;64119;52.070;20.804;2024-03-25T01:51:39;14.30;;;7.70;;
75535;SDS011;64119;52.070;20.804;2024-03-25T01:54:08;13.20;;;6.50;;
75535;SDS011;64119;52.070;20.804;2024-03-25T01:56:36;12.20;;;6.70;;
75535;SDS011;64119;52.070;20.804;2024-03-25T01:59:06;11.80;;;5.80;;
75535;SDS011;64119;52.070;20.804;2024-03-25T02:01:33;10.80;;;5.80;;
75535;SDS011;64119;52.070;20.804;2024-03-25T02:04:02;10.20;;;5.60;;
75535;SDS011;64119;52.070;20.804;2024-03-25T02:06:31;12.10;;;6.30;;
75535;SDS011;64119;52.070;20.804;2024-03-25T02:09:00;14.00;;;6.10;;
75535;SDS011;64119;52.070;20.804;2024-03-25T02:11:30;9.90;;;5.10;;
75535;SDS011;64119;52.070;20.804;2024-03-25T02:13:59;12.20;;;6.00;;
75535;SDS011;64119;52.070;20.804;2024-03-25T02:16:27;15.50;;;6.60;;
75535;SDS011;64119;52.070;20.804;2024-03-25T02:18:55;14.40;;;6.50;;
75535;SDS011;64119;52.070;20.804;2024-03-25T02:21:23;11.90;;;6.90;;
75535;SDS011;64119;52.070;20.804;2024-03-25T02:23:51;9.90;;;5.30;;
75535;SDS011;64119;52.070;20.804;2024-03-25T02:26:20;12.40;;;6.00;;
75535;SDS011;64119;52.070;20.804;2024-03-25T02:28:49;13.00;;;5.40;;
75535;SDS011;64119;52.070;20.804;2024-03-25T02:31:17;10.50;;;6.30;;
75535;SDS011;64119;52.070;20.804;2024-03-25T02:33:47;12.20;;;5.70;;
75535;SDS011;64119;52.070;20.804;2024-03-25T02:36:15;13.90;;;6.40;;
75535;SDS011;64119;52.070;20.804;2024-03-25T02:38:43;9.70;;;6.40;;
75535;SDS011;64119;52.070;20.804;2024-03-25T02:41:11;13.50;;;6.20;;
75535;SDS011;64119;52.070;20.804;2024-03-25T02:43:40;11.50;;;5.50;;
75535;SDS011;64119;52.070;20.804;2024-03-25T02:46:08;10.80;;;6.00;;
75535;SDS011;64119;52.070;20.804;2024-03-25T02:48:36;11.00;;;5.90;;
75535;SDS011;64119;52.070;20.804;2024-03-25T02:51:04;10.30;;;5.90;;
75535;SDS011;64119;52.070;20.804;2024-03-25T02:53:32;10.40;;;6.20;;
75535;SDS011;64119;52.070;20.804;2024-03-25T02:56:00;9.70;;;5.70;;
75535;SDS011;64119;52.070;20.804;2024-03-25T02:58:28;8.80;;;5.00;;
75535;SDS011;64119;52.070;20.804;2024-03-25T03:00:55;9.80;;;5.70;;
75535;SDS011;64119;52.070;20.804;2024-03-25T03:03:23;11.90;;;6.60;;
75535;SDS011;64119;52.070;20.804;2024-03-25T03:05:50;11.60;;;6.60;;
75535;SDS011;64119;52.070;20.804;2024-03-25T03:08:18;12.80;;;6.10;;
75535;SDS011;64119;52.070;20.804;2024-03-25T03:10:45;10.20;;;4.90;;
75535;SDS011;64119;52.070;20.804;2024-03-25T03:13:13;8.00;;;4.60;;
75535;SDS011;64119;52.070;20.804;2024-03-25T03:15:43;11.50;;;5.40;;
75535;SDS011;64119;52.070;20.804;2024-03-25T03:18:11;13.30;;;6.70;;
75535;SDS011;64119;52.070;20.804;2024-03-25T03:20:39;13.50;;;7.20;;
75535;SDS011;64119;52.070;20.804;2024-03-25T03:23:07;14.30;;;7.20;;
75535;SDS011;64119;52.070;20.804;2024-03-25T03:25:34;14.00;;;6.70;;
75535;SDS011;64119;52.070;20.804;2024-03-25T03:28:02;14.60;;;7.80;;
75535;SDS011;64119;52.070;20.804;2024-03-25T03:30:30;11.60;;;6.10;;
75535;SDS011;64119;52.070;20.804;2024-03-25T03:32:57;17.30;;;8.20;;
75535;SDS011;64119;52.070;20.804;2024-03-25T03:35:25;15.50;;;7.80;;
75535;SDS011;64119;52.070;20.804;2024-03-25T03:37:52;13.50;;;7.40;;
75535;SDS011;64119;52.070;20.804;2024-03-25T03:40:20;12.30;;;6.40;;
75535;SDS011;64119;52.070;20.804;2024-03-25T03:42:47;10.60;;;6.20;;
75535;SDS011;64119;52.070;20.804;2024-03-25T03:45:15;14.50;;;7.30;;
75535;SDS011;64119;52.070;20.804;2024-03-25T03:47:43;12.50;;;6.60;;
75535;SDS011;64119;52.070;20.804;2024-03-25T03:50:10;14.40;;;6.70;;
75535;SDS011;64119;52.070;20.804;2024-03-25T03:52:38;14.20;;;6.70;;
75535;SDS011;64119;52.070;20.804;2024-03-25T03:55:06;14.50;;;7.10;;
75535;SDS011;64119;52.070;20.804;2024-03-25T03:57:34;11.90;;;5.60;;
75535;SDS011;64119;52.070;20.804;2024-03-25T04:00:02;14.30;;;6.90;;
75535;SDS011;64119;52.070;20.804;2024-03-25T04:02:38;12.90;;;6.80;;
75535;SDS011;64119;52.070;20.804;2024-03-25T04:05:06;11.10;;;6.70;;
75535;SDS011;64119;52.070;20.804;2024-03-25T04:07:33;12.40;;;7.70;;
75535;SDS011;64119;52.070;20.804;2024-03-25T04:10:01;11.60;;;6.60;;
75535;SDS011;64119;52.070;20.804;2024-03-25T04:12:30;8.50;;;4.70;;
75535;SDS011;64119;52.070;20.804;2024-03-25T04:14:58;14.40;;;7.60;;
75535;SDS011;64119;52.070;20.804;2024-03-25T04:17:25;13.80;;;5.90;;
75535;SDS011;64119;52.070;20.804;2024-03-25T04:19:53;10.40;;;6.00;;
75535;SDS011;64119;52.070;20.804;2024-03-25T04:22:21;15.00;;;6.80;;
75535;SDS011;64119;52.070;20.804;2024-03-25T04:24:48;13.10;;;7.00;;
75535;SDS011;64119;52.070;20.804;2024-03-25T04:27:16;11.70;;;5.70;;
75535;SDS011;64119;52.070;20.804;2024-03-25T04:29:43;10.20;;;5.40;;
75535;SDS011;64119;52.070;20.804;2024-03-25T04:32:11;14.60;;;6.70;;
75535;SDS011;64119;52.070;20.804;2024-03-25T04:34:39;13.20;;;7.90;;
75535;SDS011;64119;52.070;20.804;2024-03-25T04:37:06;11.80;;;6.00;;
75535;SDS011;64119;52.070;20.804;2024-03-25T04:39:34;11.70;;;6.40;;
75535;SDS011;64119;52.070;20.804;2024-03-25T04:42:01;14.00;;;7.00;;
75535;SDS011;64119;52.070;20.804;2024-03-25T04:44:30;14.90;;;6.20;;
75535;SDS011;64119;52.070;20.804;2024-03-25T04:46:58;15.60;;;7.40;;
75535;SDS011;64119;52.070;20.804;2024-03-25T04:49:25;9.70;;;5.60;;
75535;SDS011;64119;52.070;20.804;2024-03-25T04:51:53;12.00;;;6.60;;
75535;SDS011;64119;52.070;20.804;2024-03-25T04:54:22;12.70;;;6.60;;
75535;SDS011;64119;52.070;20.804;2024-03-25T04:56:49;13.80;;;7.80;;
75535;SDS011;64119;52.070;20.804;2024-03-25T04:59:18;11.70;;;6.50;;
75535;SDS011;64119;52.070;20.804;2024-03-25T05:01:45;13.90;;;7.80;;
75535;SDS011;64119;52.070;20.804;2024-03-25T05:04:13;13.30;;;6.70;;
75535;SDS011;64119;52.070;20.804;2024-03-25T05:06:41;13.40;;;7.20;;
75535;SDS011;64119;52.070;20.804;2024-03-25T05:09:09;11.90;;;6.30;;
75535;SDS011;64119;52.070;20.804;2024-03-25T05:11:37;13.00;;;6.20;;
75535;SDS011;64119;52.070;20.804;2024-03-25T05:14:05;10.70;;;6.20;;
75535;SDS011;64119;52.070;20.804;2024-03-25T05:16:32;13.20;;;7.30;;
75535;SDS011;64119;52.070;20.804;2024-03-25T05:19:00;12.60;;;7.50;;
75535;SDS011;64119;52.070;20.804;2024-03-25T05:21:28;16.60;;;7.90;;
75535;SDS011;64119;52.070;20.804;2024-03-25T05:23:56;14.00;;;7.70;;
75535;SDS011;64119;52.070;20.804;2024-03-25T05:26:23;11.90;;;6.10;;
75535;SDS011;64119;52.070;20.804;2024-03-25T05:28:54;12.20;;;6.10;;
75535;SDS011;64119;52.070;20.804;2024-03-25T05:31:23;12.10;;;6.50;;
75535;SDS011;64119;52.070;20.804;2024-03-25T05:33:51;14.30;;;7.80;;
75535;SDS011;64119;52.070;20.804;2024-03-25T05:36:19;12.90;;;7.10;;
75535;SDS011;64119;52.070;20.804;2024-03-25T05:38:46;12.70;;;6.80;;
75535;SDS011;64119;52.070;20.804;2024-03-25T05:41:14;13.20;;;7.50;;
75535;SDS011;64119;52.070;20.804;2024-03-25T05:43:43;10.10;;;5.80;;
75535;SDS011;64119;52.070;20.804;2024-03-25T05:46:11;11.40;;;6.20;;
75535;SDS011;64119;52.070;20.804;2024-03-25T05:48:38;13.80;;;6.10;;
75535;SDS011;64119;52.070;20.804;2024-03-25T05:51:06;11.80;;;5.90;;
75535;SDS011;64119;52.070;20.804;2024-03-25T05:53:37;11.00;;;6.40;;
75535;SDS011;64119;52.070;20.804;2024-03-25T05:56:06;8.00;;;4.40;;
75535;SDS011;64119;52.070;20.804;2024-03-25T05:58:34;9.40;;;5.10;;
75535;SDS011;64119;52.070;20.804;2024-03-25T06:01:02;12.70;;;6.00;;
75535;SDS011;64119;52.070;20.804;2024-03-25T06:03:31;11.40;;;6.20;;
75535;SDS011;64119;52.070;20.804;2024-03-25T06:06:00;11.80;;;6.20;;
75535;SDS011;64119;52.070;20.804;2024-03-25T06:08:29;10.70;;;6.50;;
75535;SDS011;64119;52.070;20.804;2024-03-25T06:11:01;12.50;;;6.60;;
75535;SDS011;64119;52.070;20.804;2024-03-25T06:13:29;10.90;;;6.10;;
75535;SDS011;64119;52.070;20.804;2024-03-25T06:15:56;12.50;;;5.70;;
75535;SDS011;64119;52.070;20.804;2024-03-25T06:18:24;10.40;;;5.90;;
75535;SDS011;64119;52.070;20.804;2024-03-25T06:20:52;9.40;;;5.50;;
75535;SDS011;64119;52.070;20.804;2024-03-25T06:25:57;10.70;;;5.50;;
75535;SDS011;64119;52.070;20.804;2024-03-25T06:28:25;10.00;;;5.80;;
75535;SDS011;64119;52.070;20.804;2024-03-25T06:30:52;9.50;;;5.20;;
75535;SDS011;64119;52.070;20.804;2024-03-25T06:33:38;12.70;;;6.10;;
75535;SDS011;64119;52.070;20.804;2024-03-25T06:36:25;8.50;;;4.70;;
75535;SDS011;64119;52.070;20.804;2024-03-25T06:38:52;8.90;;;5.80;;
75535;SDS011;64119;52.070;20.804;2024-03-25T06:41:20;11.70;;;5.70;;
75535;SDS011;64119;52.070;20.804;2024-03-25T06:43:48;10.50;;;5.00;;
75535;SDS011;64119;52.070;20.804;2024-03-25T06:46:16;10.00;;;5.20;;
75535;SDS011;64119;52.070;20.804;2024-03-25T06:48:44;8.40;;;5.20;;
75535;SDS011;64119;52.070;20.804;2024-03-25T06:51:12;9.30;;;5.60;;
75535;SDS011;64119;52.070;20.804;2024-03-25T06:53:39;10.00;;;5.50;;
75535;SDS011;64119;52.070;20.804;2024-03-25T06:56:07;8.80;;;4.80;;
75535;SDS011;64119;52.070;20.804;2024-03-25T06:58:36;9.00;;;4.20;;
75535;SDS011;64119;52.070;20.804;2024-03-25T07:01:04;6.70;;;4.20;;
75535;SDS011;64119;52.070;20.804;2024-03-25T07:03:35;8.20;;;4.60;;
75535;SDS011;64119;52.070;20.804;2024-03-25T07:06:02;9.10;;;4.40;;
75535;SDS011;64119;52.070;20.804;2024-03-25T07:08:31;9.00;;;4.70;;
75535;SDS011;64119;52.070;20.804;2024-03-25T07:10:59;6.50;;;4.10;;
75535;SDS011;64119;52.070;20.804;2024-03-25T07:13:26;8.20;;;4.20;;
75535;SDS011;64119;52.070;20.804;2024-03-25T07:15:54;8.00;;;5.10;;
75535;SDS011;64119;52.070;20.804;2024-03-25T07:18:22;9.90;;;4.60;;
75535;SDS011;64119;52.070;20.804;2024-03-25T07:20:50;7.40;;;5.20;;
75535;SDS011;64119;52.070;20.804;2024-03-25T07:23:18;7.60;;;4.80;;
75535;SDS011;64119;52.070;20.804;2024-03-25T07:25:45;8.00;;;4.80;;
75535;SDS011;64119;52.070;20.804;2024-03-25T07:28:13;10.30;;;4.90;;
75535;SDS011;64119;52.070;20.804;2024-03-25T07:30:40;7.20;;;4.80;;
75535;SDS011;64119;52.070;20.804;2024-03-25T07:33:09;8.20;;;4.40;;
75535;SDS011;64119;52.070;20.804;2024-03-25T07:35:36;7.20;;;4.30;;
75535;SDS011;64119;52.070;20.804;2024-03-25T07:38:04;8.50;;;4.60;;
75535;SDS011;64119;52.070;20.804;2024-03-25T07:40:31;6.40;;;4.00;;
75535;SDS011;64119;52.070;20.804;2024-03-25T07:42:59;6.40;;;3.90;;
75535;SDS011;64119;52.070;20.804;2024-03-25T07:45:27;7.10;;;4.80;;
75535;SDS011;64119;52.070;20.804;2024-03-25T07:47:55;7.40;;;4.40;;
75535;SDS011;64119;52.070;20.804;2024-03-25T07:50:23;7.50;;;4.30;;
75535;SDS011;64119;52.070;20.804;2024-03-25T07:52:51;8.10;;;4.80;;
75535;SDS011;64119;52.070;20.804;2024-03-25T07:55:18;9.20;;;4.60;;
75535;SDS011;64119;52.070;20.804;2024-03-25T07:57:46;7.90;;;4.80;;
75535;SDS011;64119;52.070;20.804;2024-03-25T08:00:14;8.10;;;4.90;;
75535;SDS011;64119;52.070;20.804;2024-03-25T08:02:42;6.80;;;4.50;;
75535;SDS011;64119;52.070;20.804;2024-03-25T08:05:09;5.60;;;3.90;;
75535;SDS011;64119;52.070;20.804;2024-03-25T08:07:37;8.50;;;4.60;;
75535;SDS011;64119;52.070;20.804;2024-03-25T08:10:05;6.90;;;4.80;;
75535;SDS011;64119;52.070;20.804;2024-03-25T08:12:33;8.00;;;4.20;;
75535;SDS011;64119;52.070;20.804;2024-03-25T08:15:00;7.70;;;4.70;;
75535;SDS011;64119;52.070;20.804;2024-03-25T08:17:28;6.40;;;3.70;;
75535;SDS011;64119;52.070;20.804;2024-03-25T08:19:55;8.20;;;4.70;;
75535;SDS011;64119;52.070;20.804;2024-03-25T08:22:23;10.00;;;5.50;;
75535;SDS011;64119;52.070;20.804;2024-03-25T08:24:51;5.90;;;3.80;;
75535;SDS011;64119;52.070;20.804;2024-03-25T08:27:18;8.10;;;4.90;;
75535;SDS011;64119;52.070;20.804;2024-03-25T08:29:46;6.00;;;4.60;;
75535;SDS011;64119;52.070;20.804;2024-03-25T08:32:13;6.70;;;4.00;;
75535;SDS011;64119;52.070;20.804;2024-03-25T08:34:41;5.50;;;3.60;;
75535;SDS011;64119;52.070;20.804;2024-03-25T08:37:09;7.40;;;4.60;;
75535;SDS011;64119;52.070;20.804;2024-03-25T08:39:36;7.40;;;4.50;;
75535;SDS011;64119;52.070;20.804;2024-03-25T08:42:04;8.40;;;4.30;;
75535;SDS011;64119;52.070;20.804;2024-03-25T08:44:32;7.60;;;4.80;;
75535;SDS011;64119;52.070;20.804;2024-03-25T08:46:59;6.90;;;4.30;;
75535;SDS011;64119;52.070;20.804;2024-03-25T08:49:27;6.20;;;4.20;;
75535;SDS011;64119;52.070;20.804;2024-03-25T08:51:54;7.00;;;4.30;;
75535;SDS011;64119;52.070;20.804;2024-03-25T08:54:22;5.40;;;4.00;;
75535;SDS011;64119;52.070;20.804;2024-03-25T08:56:50;10.20;;;4.90;;
75535;SDS011;64119;52.070;20.804;2024-03-25T08:59:17;8.70;;;4.40;;
75535;SDS011;64119;52.070;20.804;2024-03-25T09:01:45;7.70;;;4.30;;
75535;SDS011;64119;52.070;20.804;2024-03-25T09:04:12;6.60;;;4.10;;
75535;SDS011;64119;52.070;20.804;2024-03-25T09:06:54;6.40;;;4.00;;
75535;SDS011;64119;52.070;20.804;2024-03-25T09:09:21;6.50;;;4.10;;
75535;SDS011;64119;52.070;20.804;2024-03-25T09:12:08;6.00;;;4.00;;
75535;SDS011;64119;52.070;20.804;2024-03-25T09:14:35;6.70;;;4.00;;
75535;SDS011;64119;52.070;20.804;2024-03-25T09:17:05;5.10;;;3.30;;
75535;SDS011;64119;52.070;20.804;2024-03-25T09:19:33;6.40;;;3.90;;
75535;SDS011;64119;52.070;20.804;2024-03-25T09:22:00;7.80;;;4.20;;
75535;SDS011;64119;52.070;20.804;2024-03-25T09:24:28;7.20;;;3.90;;
75535;SDS011;64119;52.070;20.804;2024-03-25T09:26:55;4.60;;;3.50;;
75535;SDS011;64119;52.070;20.804;2024-03-25T09:29:23;5.60;;;3.50;;
75535;SDS011;64119;52.070;20.804;2024-03-25T09:31:50;4.70;;;3.30;;
75535;SDS011;64119;52.070;20.804;2024-03-25T09:34:18;4.80;;;3.10;;
75535;SDS011;64119;52.070;20.804;2024-03-25T09:36:46;8.60;;;3.10;;
75535;SDS011;64119;52.070;20.804;2024-03-25T09:39:14;7.20;;;3.60;;
75535;SDS011;64119;52.070;20.804;2024-03-25T09:41:43;5.40;;;3.60;;
75535;SDS011;64119;52.070;20.804;2024-03-25T09:44:12;6.20;;;3.30;;
75535;SDS011;64119;52.070;20.804;2024-03-25T09:46:39;4.80;;;3.30;;
75535;SDS011;64119;52.070;20.804;2024-03-25T09:49:08;5.20;;;3.40;;
75535;SDS011;64119;52.070;20.804;2024-03-25T09:51:36;4.10;;;2.90;;
75535;SDS011;64119;52.070;20.804;2024-03-25T09:54:03;4.60;;;2.90;;
75535;SDS011;64119;52.070;20.804;2024-03-25T09:56:32;5.90;;;2.80;;
75535;SDS011;64119;52.070;20.804;2024-03-25T09:59:00;3.30;;;2.20;;
75535;SDS011;64119;52.070;20.804;2024-03-25T10:01:28;4.30;;;2.60;;
75535;SDS011;64119;52.070;20.804;2024-03-25T10:03:56;5.60;;;3.10;;
75535;SDS011;64119;52.070;20.804;2024-03-25T10:06:24;4.10;;;2.70;;
75535;SDS011;64119;52.070;20.804;2024-03-25T10:08:54;8.90;;;3.10;;
75535;SDS011;64119;52.070;20.804;2024-03-25T10:11:24;5.10;;;3.20;;
75535;SDS011;64119;52.070;20.804;2024-03-25T10:13:52;6.20;;;3.10;;
75535;SDS011;64119;52.070;20.804;2024-03-25T10:16:20;4.50;;;2.90;;
75535;SDS011;64119;52.070;20.804;2024-03-25T10:18:49;5.90;;;3.50;;
75535;SDS011;64119;52.070;20.804;2024-03-25T10:21:18;4.90;;;3.10;;
75535;SDS011;64119;52.070;20.804;2024-03-25T10:23:48;4.60;;;2.90;;
75535;SDS011;64119;52.070;20.804;2024-03-25T10:29:05;4.40;;;2.80;;
75535;SDS011;64119;52.070;20.804;2024-03-25T10:31:38;5.10;;;2.90;;
75535;SDS011;64119;52.070;20.804;2024-03-25T10:34:05;4.60;;;2.70;;
75535;SDS011;64119;52.070;20.804;2024-03-25T10:36:34;5.50;;;2.80;;
75535;SDS011;64119;52.070;20.804;2024-03-25T10:39:02;4.30;;;2.60;;
75535;SDS011;64119;52.070;20.804;2024-03-25T10:41:34;3.70;;;2.20;;
75535;SDS011;64119;52.070;20.804;2024-03-25T10:44:03;4.10;;;2.20;;
75535;SDS011;64119;52.070;20.804;2024-03-25T10:46:34;6.60;;;3.10;;
75535;SDS011;64119;52.070;20.804;2024-03-25T10:49:04;4.60;;;2.30;;
75535;SDS011;64119;52.070;20.804;2024-03-25T10:51:40;5.00;;;2.30;;
75535;SDS011;64119;52.070;20.804;2024-03-25T10:54:09;4.80;;;3.10;;
75535;SDS011;64119;52.070;20.804;2024-03-25T10:56:39;3.80;;;2.60;;
75535;SDS011;64119;52.070;20.804;2024-03-25T10:59:07;4.90;;;2.20;;
75535;SDS011;64119;52.070;20.804;2024-03-25T11:01:36;3.60;;;2.00;;
75535;SDS011;64119;52.070;20.804;2024-03-25T11:04:04;3.90;;;2.30;;
75535;SDS011;64119;52.070;20.804;2024-03-25T11:06:33;6.20;;;2.60;;
75535;SDS011;64119;52.070;20.804;2024-03-25T11:09:01;3.60;;;2.10;;
75535;SDS011;64119;52.070;20.804;2024-03-25T11:11:34;3.10;;;2.30;;
75535;SDS011;64119;52.070;20.804;2024-03-25T11:14:03;4.40;;;2.40;;
75535;SDS011;64119;52.070;20.804;2024-03-25T11:16:31;4.10;;;2.70;;
75535;SDS011;64119;52.070;20.804;2024-03-25T11:19:02;5.00;;;2.80;;
75535;SDS011;64119;52.070;20.804;2024-03-25T11:21:30;3.90;;;2.10;;
75535;SDS011;64119;52.070;20.804;2024-03-25T11:24:08;3.60;;;2.60;;
75535;SDS011;64119;52.070;20.804;2024-03-25T11:26:40;6.80;;;2.70;;
75535;SDS011;64119;52.070;20.804;2024-03-25T11:29:09;4.30;;;2.60;;
75535;SDS011;64119;52.070;20.804;2024-03-25T11:31:38;4.70;;;2.50;;
75535;SDS011;64119;52.070;20.804;2024-03-25T11:34:06;3.40;;;2.40;;
75535;SDS011;64119;52.070;20.804;2024-03-25T11:36:35;3.60;;;2.50;;
75535;SDS011;64119;52.070;20.804;2024-03-25T11:39:03;4.40;;;2.50;;
75535;SDS011;64119;52.070;20.804;2024-03-25T11:41:39;4.90;;;3.20;;
75535;SDS011;64119;52.070;20.804;2024-03-25T11:44:09;4.70;;;2.80;;
75535;SDS011;64119;52.070;20.804;2024-03-25T11:46:38;4.00;;;2.70;;
75535;SDS011;64119;52.070;20.804;2024-03-25T11:49:07;3.90;;;2.50;;
75535;SDS011;64119;52.070;20.804;2024-03-25T11:51:39;5.00;;;2.80;;
75535;SDS011;64119;52.070;20.804;2024-03-25T11:54:10;4.20;;;2.80;;
75535;SDS011;64119;52.070;20.804;2024-03-25T11:56:39;3.50;;;2.40;;
75535;SDS011;64119;52.070;20.804;2024-03-25T11:59:07;4.00;;;2.10;;
75535;SDS011;64119;52.070;20.804;2024-03-25T12:01:35;3.30;;;2.20;;
75535;SDS011;64119;52.070;20.804;2024-03-25T12:04:12;3.80;;;2.50;;
75535;SDS011;64119;52.070;20.804;2024-03-25T12:06:42;6.50;;;2.50;;
75535;SDS011;64119;52.070;20.804;2024-03-25T12:09:11;4.50;;;2.80;;
75535;SDS011;64119;52.070;20.804;2024-03-25T12:11:57;3.70;;;2.30;;
75535;SDS011;64119;52.070;20.804;2024-03-25T12:14:26;4.10;;;2.70;;
75535;SDS011;64119;52.070;20.804;2024-03-25T12:16:57;5.40;;;2.90;;
75535;SDS011;64119;52.070;20.804;2024-03-25T12:19:24;3.90;;;2.30;;
75535;SDS011;64119;52.070;20.804;2024-03-25T12:21:59;4.40;;;2.90;;
75535;SDS011;64119;52.070;20.804;2024-03-25T12:24:28;3.50;;;2.20;;
75535;SDS011;64119;52.070;20.804;2024-03-25T12:26:56;3.10;;;1.90;;
75535;SDS011;64119;52.070;20.804;2024-03-25T12:29:23;6.70;;;4.10;;
75535;SDS011;64119;52.070;20.804;2024-03-25T12:31:54;6.90;;;4.40;;
75535;SDS011;64119;52.070;20.804;2024-03-25T12:34:26;7.00;;;4.30;;
75535;SDS011;64119;52.070;20.804;2024-03-25T12:37:03;5.50;;;4.30;;
75535;SDS011;64119;52.070;20.804;2024-03-25T12:39:31;9.10;;;3.90;;
75535;SDS011;64119;52.070;20.804;2024-03-25T12:41:59;5.30;;;3.80;;
75535;SDS011;64119;52.070;20.804;2024-03-25T12:44:32;5.80;;;3.40;;
75535;SDS011;64119;52.070;20.804;2024-03-25T12:46:59;4.50;;;3.00;;
75535;SDS011;64119;52.070;20.804;2024-03-25T12:49:28;5.90;;;4.10;;
75535;SDS011;64119;52.070;20.804;2024-03-25T12:51:55;4.90;;;3.50;;
75535;SDS011;64119;52.070;20.804;2024-03-25T12:54:24;4.30;;;3.30;;
75535;SDS011;64119;52.070;20.804;2024-03-25T12:56:51;4.00;;;3.60;;
75535;SDS011;64119;52.070;20.804;2024-03-25T12:59:19;4.80;;;3.60;;
75535;SDS011;64119;52.070;20.804;2024-03-25T13:01:46;6.90;;;3.80;;
75535;SDS011;64119;52.070;20.804;2024-03-25T13:04:14;4.30;;;3.00;;
75535;SDS011;64119;52.070;20.804;2024-03-25T13:06:41;4.60;;;2.90;;
75535;SDS011;64119;52.070;20.804;2024-03-25T13:09:09;3.90;;;2.90;;
75535;SDS011;64119;52.070;20.804;2024-03-25T13:11:37;3.40;;;2.80;;
75535;SDS011;64119;52.070;20.804;2024-03-25T13:14:05;3.30;;;2.50;;
75535;SDS011;64119;52.070;20.804;2024-03-25T13:16:35;3.10;;;2.40;;
75535;SDS011;64119;52.070;20.804;2024-03-25T13:19:02;2.90;;;2.50;;
75535;SDS011;64119;52.070;20.804;2024-03-25T13:21:30;4.50;;;2.50;;
75535;SDS011;64119;52.070;20.804;2024-03-25T13:23:58;3.80;;;2.30;;
75535;SDS011;64119;52.070;20.804;2024-03-25T13:26:25;3.30;;;2.50;;
75535;SDS011;64119;52.070;20.804;2024-03-25T13:28:53;4.00;;;2.30;;
75535;SDS011;64119;52.070;20.804;2024-03-25T13:31:24;5.10;;;2.90;;
75535;SDS011;64119;52.070;20.804;2024-03-25T13:33:52;2.70;;;2.10;;
75535;SDS011;64119;52.070;20.804;2024-03-25T13:36:20;3.50;;;2.60;;
75535;SDS011;64119;52.070;20.804;2024-03-25T13:38:48;3.10;;;2.30;;
75535;SDS011;64119;52.070;20.804;2024-03-25T13:41:15;3.70;;;2.50;;
75535;SDS011;64119;52.070;20.804;2024-03-25T13:43:45;2.90;;;1.80;;
75535;SDS011;64119;52.070;20.804;2024-03-25T13:46:14;3.60;;;2.20;;
75535;SDS011;64119;52.070;20.804;2024-03-25T13:48:42;3.50;;;1.90;;
75535;SDS011;64119;52.070;20.804;2024-03-25T13:51:10;1.90;;;1.70;;
75535;SDS011;64119;52.070;20.804;2024-03-25T13:53:37;2.40;;;1.60;;
75535;SDS011;64119;52.070;20.804;2024-03-25T13:56:05;5.50;;;2.00;;
75535;SDS011;64119;52.070;20.804;2024-03-25T13:58:33;2.20;;;1.60;;
75535;SDS011;64119;52.070;20.804;2024-03-25T14:01:01;2.80;;;1.40;;
75535;SDS011;64119;52.070;20.804;2024-03-25T14:03:29;3.00;;;1.60;;
75535;SDS011;64119;52.070;20.804;2024-03-25T14:05:56;4.10;;;1.70;;
75535;SDS011;64119;52.070;20.804;2024-03-25T14:08:24;3.60;;;1.40;;
75535;SDS011;64119;52.070;20.804;2024-03-25T14:10:58;1.90;;;1.00;;
75535;SDS011;64119;52.070;20.804;2024-03-25T14:13:27;2.60;;;1.40;;
75535;SDS011;64119;52.070;20.804;2024-03-25T14:15:54;1.80;;;1.00;;
75535;SDS011;64119;52.070;20.804;2024-03-25T14:18:22;6.20;;;1.70;;
75535;SDS011;64119;52.070;20.804;2024-03-25T14:20:53;2.10;;;1.50;;
75535;SDS011;64119;52.070;20.804;2024-03-25T14:23:20;5.50;;;1.90;;
75535;SDS011;64119;52.070;20.804;2024-03-25T14:25:48;3.30;;;1.50;;
75535;SDS011;64119;52.070;20.804;2024-03-25T14:28:15;2.60;;;1.40;;
75535;SDS011;64119;52.070;20.804;2024-03-25T14:30:43;2.10;;;1.30;;
75535;SDS011;64119;52.070;20.804;2024-03-25T14:33:10;1.90;;;1.20;;
75535;SDS011;64119;52.070;20.804;2024-03-25T14:35:39;9.20;;;2.00;;
75535;SDS011;64119;52.070;20.804;2024-03-25T14:38:07;6.40;;;1.50;;
75535;SDS011;64119;52.070;20.804;2024-03-25T14:40:40;2.20;;;1.50;;